Time;durP1;ratioP1;P1;durP2;ratioP2;P2;SDS_P1;SDS_P2;PMS_P1;PMS_P2;Temp;Humidity;BMP_temperature;BMP_pressure;BME280_temperature;BME280_humidity;BME280_pressure;Samples;Min_cycle;Max_cycle;Signal;HPM_P1;HPM_P2
2023/08/22 00:00:13;;;;;;;1.02;0.65;;;23.70;76.90;;;;;;5026871;28;20045;-85
2023/08/22 00:02:38;;;;;;;0.68;0.68;;;23.70;76.80;;;;;;5023496;28;20047;-85
2023/08/22 00:05:04;;;;;;;1.13;0.88;;;23.70;76.70;;;;;;5023482;28;20511;-84
2023/08/22 00:07:30;;;;;;;0.82;0.82;;;23.70;76.70;;;;;;5022498;28;20065;-84
2023/08/22 00:09:55;;;;;;;1.30;0.85;;;23.70;76.60;;;;;;5007674;28;20073;-84
2023/08/22 00:12:21;;;;;;;0.73;0.70;;;23.70;76.70;;;;;;5024970;28;20499;-83
2023/08/22 00:14:47;;;;;;;1.00;0.60;;;23.70;76.60;;;;;;5024306;28;20411;-84
2023/08/22 00:17:12;;;;;;;0.80;0.80;;;23.70;77.30;;;;;;5021052;28;20030;-84
2023/08/22 00:19:39;;;;;;;0.80;0.80;;;23.70;76.50;;;;;;5023240;28;20072;-84
2023/08/22 00:22:06;;;;;;;1.10;0.82;;;23.70;76.70;;;;;;5024319;28;20526;-84
2023/08/22 00:24:32;;;;;;;1.15;0.75;;;23.70;76.50;;;;;;5025316;28;20053;-84
2023/08/22 00:26:58;;;;;;;0.63;0.50;;;23.70;76.60;;;;;;5024121;28;20683;-84
2023/08/22 00:29:23;;;;;;;1.00;0.60;;;23.70;76.60;;;;;;5005363;28;20029;-84
2023/08/22 00:31:49;;;;;;;0.95;0.90;;;23.70;76.70;;;;;;5021692;28;20081;-85
2023/08/22 00:34:15;;;;;;;0.90;0.60;;;23.70;76.50;;;;;;5024171;28;20041;-84
2023/08/22 00:36:40;;;;;;;1.02;0.90;;;23.70;76.60;;;;;;5023980;28;20506;-84
2023/08/22 00:39:06;;;;;;;0.98;0.60;;;23.70;76.60;;;;;;5025557;28;20559;-84
2023/08/22 00:41:32;;;;;;;0.73;0.70;;;23.70;76.60;;;;;;5005032;28;20116;-84
2023/08/22 00:43:58;;;;;;;1.65;1.00;;;23.70;76.50;;;;;;5006953;28;20037;-84
2023/08/22 00:46:25;;;;;;;0.68;0.63;;;23.70;76.90;;;;;;5022678;28;20055;-83
2023/08/22 00:48:50;;;;;;;1.05;0.73;;;23.70;76.50;;;;;;5022157;28;20065;-84
2023/08/22 00:51:16;;;;;;;0.98;0.80;;;23.70;76.50;;;;;;5008512;28;20468;-84
2023/08/22 00:53:42;;;;;;;0.88;0.88;;;23.70;76.60;;;;;;4987057;28;20053;-84
2023/08/22 00:56:08;;;;;;;1.17;0.73;;;23.70;76.70;;;;;;5019126;28;20419;-84
2023/08/22 00:58:34;;;;;;;1.10;0.73;;;23.70;76.80;;;;;;5022219;28;20041;-84
2023/08/22 01:00:59;;;;;;;1.05;0.90;;;23.70;76.90;;;;;;5021479;28;20388;-84
2023/08/22 01:03:25;;;;;;;0.60;0.60;;;23.60;76.70;;;;;;5000838;28;20045;-84
2023/08/22 01:05:53;;;;;;;1.17;0.90;;;23.60;76.90;;;;;;5020165;28;20477;-84
2023/08/22 01:08:20;;;;;;;0.80;0.68;;;23.60;76.90;;;;;;5022899;28;20049;-85
2023/08/22 01:10:49;;;;;;;1.38;1.02;;;23.60;76.90;;;;;;5001798;28;20054;-84
2023/08/22 01:13:20;;;;;;;1.20;0.63;;;23.60;77.80;;;;;;5004029;28;20053;-84
2023/08/22 01:15:46;;;;;;;1.50;0.70;;;23.60;77.00;;;;;;5007190;28;20068;-84
2023/08/22 01:18:14;;;;;;;1.42;0.70;;;23.60;76.90;;;;;;5004816;28;20424;-84
2023/08/22 01:20:39;;;;;;;1.10;1.02;;;23.60;76.90;;;;;;4988045;28;20033;-84
2023/08/22 01:23:05;;;;;;;1.58;0.88;;;23.60;76.90;;;;;;4990699;28;20056;-84
2023/08/22 01:25:30;;;;;;;0.90;0.88;;;23.60;76.80;;;;;;5006043;28;20407;-84
2023/08/22 01:28:32;;;;;;;1.13;0.70;;;23.60;76.90;;;;;;5006808;28;20041;-84
2023/08/22 01:31:01;;;;;;;1.00;0.90;;;23.60;77.00;;;;;;5000485;28;20101;-84
2023/08/22 01:33:51;;;;;;;1.33;0.70;;;23.60;77.00;;;;;;5019299;28;20046;-83
2023/08/22 01:36:17;;;;;;;0.80;0.73;;;23.60;76.90;;;;;;5035976;28;20088;-84
2023/08/22 01:38:42;;;;;;;1.38;0.60;;;23.60;76.90;;;;;;5025670;28;20602;-84
2023/08/22 01:41:08;;;;;;;0.98;0.70;;;23.60;76.80;;;;;;4993291;28;20132;-84
2023/08/22 01:43:34;;;;;;;1.45;0.70;;;23.60;76.80;;;;;;5008879;28;20091;-83
2023/08/22 01:45:59;;;;;;;2.35;0.70;;;23.60;77.00;;;;;;5020248;28;20041;-85
2023/08/22 01:48:25;;;;;;;1.50;0.88;;;23.60;76.90;;;;;;5021999;28;20045;-84
2023/08/22 01:50:50;;;;;;;1.67;0.73;;;23.60;77.00;;;;;;5025113;28;20851;-84
2023/08/22 01:53:16;;;;;;;1.17;0.85;;;23.60;76.90;;;;;;5028207;28;21179;-84
2023/08/22 01:55:41;;;;;;;1.70;1.45;;;23.60;76.80;;;;;;5025623;28;20033;-85
2023/08/22 01:58:10;;;;;;;0.90;0.80;;;23.60;76.70;;;;;;5027692;28;20091;-85
2023/08/22 02:00:37;;;;;;;1.85;0.75;;;23.60;76.70;;;;;;5008674;28;20033;-84
2023/08/22 02:03:03;;;;;;;1.17;0.80;;;23.60;76.70;;;;;;5018987;28;20099;-84
2023/08/22 02:05:29;;;;;;;0.95;0.80;;;23.60;76.80;;;;;;4992245;28;20053;-84
2023/08/22 02:07:54;;;;;;;1.10;1.00;;;23.50;76.80;;;;;;5005342;28;20052;-84
2023/08/22 02:10:20;;;;;;;0.77;0.65;;;23.50;76.80;;;;;;5023078;28;20124;-84
2023/08/22 02:12:45;;;;;;;1.38;1.00;;;23.60;76.80;;;;;;5008825;28;20076;-84
2023/08/22 02:15:11;;;;;;;1.10;0.70;;;23.50;76.80;;;;;;5026600;28;20077;-84
2023/08/22 02:17:36;;;;;;;0.95;0.80;;;23.50;76.70;;;;;;5006231;28;20663;-84
2023/08/22 02:20:04;;;;;;;1.35;1.00;;;23.50;76.70;;;;;;5025690;28;20057;-84
2023/08/22 02:22:29;;;;;;;1.70;0.90;;;23.50;76.70;;;;;;5025076;28;20045;-83
2023/08/22 02:24:55;;;;;;;1.88;1.08;;;23.50;76.70;;;;;;5025941;28;20068;-84
2023/08/22 02:27:21;;;;;;;1.55;0.80;;;23.50;76.70;;;;;;5028096;28;20490;-84
2023/08/22 02:29:47;;;;;;;0.80;0.80;;;23.50;76.70;;;;;;5020570;28;20037;-84
2023/08/22 02:32:13;;;;;;;1.45;0.73;;;23.50;76.60;;;;;;5024924;28;20045;-84
2023/08/22 02:34:38;;;;;;;1.13;1.02;;;23.50;76.60;;;;;;5008077;28;20060;-84
2023/08/22 02:37:04;;;;;;;1.20;0.90;;;23.50;76.70;;;;;;5025716;28;20045;-83
2023/08/22 02:39:30;;;;;;;1.08;0.90;;;23.50;76.60;;;;;;5026375;28;20048;-83
2023/08/22 02:41:55;;;;;;;0.80;0.80;;;23.50;76.50;;;;;;5023888;28;20136;-85
2023/08/22 02:44:21;;;;;;;1.17;0.85;;;23.50;76.60;;;;;;5026801;28;20046;-85
2023/08/22 02:46:46;;;;;;;0.75;0.65;;;23.50;76.60;;;;;;5005630;28;20539;-84
2023/08/22 02:49:12;;;;;;;1.10;0.85;;;23.50;76.40;;;;;;5024273;28;20056;-84
2023/08/22 02:51:38;;;;;;;1.40;0.90;;;23.50;76.30;;;;;;5008163;28;20049;-84
2023/08/22 02:54:04;;;;;;;1.05;1.05;;;23.50;76.40;;;;;;5024761;28;20068;-84
2023/08/22 02:56:30;;;;;;;1.15;0.82;;;23.50;76.40;;;;;;5025752;28;20042;-82
2023/08/22 02:58:55;;;;;;;1.65;0.73;;;23.50;77.20;;;;;;5025806;28;20089;-84
2023/08/22 03:01:21;;;;;;;1.00;1.00;;;23.50;76.30;;;;;;5020609;28;20129;-84
2023/08/22 03:03:50;;;;;;;0.88;0.77;;;23.50;76.40;;;;;;5022375;28;20129;-84
2023/08/22 03:06:16;;;;;;;1.25;1.00;;;23.50;76.40;;;;;;5026359;28;20044;-84
2023/08/22 03:08:42;;;;;;;1.27;0.88;;;23.50;76.40;;;;;;5025396;28;20155;-84
2023/08/22 03:11:07;;;;;;;0.93;0.82;;;23.50;76.30;;;;;;5022967;28;20527;-84
2023/08/22 03:13:33;;;;;;;1.08;0.98;;;23.50;76.40;;;;;;5024809;28;20041;-84
2023/08/22 03:15:59;;;;;;;1.27;0.95;;;23.50;76.30;;;;;;5008245;28;20091;-84
2023/08/22 03:18:26;;;;;;;1.05;0.82;;;23.50;76.20;;;;;;5028614;28;20068;-84
2023/08/22 03:20:56;;;;;;;0.93;0.75;;;23.50;76.20;;;;;;5023634;28;20044;-85
2023/08/22 03:23:23;;;;;;;1.40;0.70;;;23.50;75.90;;;;;;5023429;28;20079;-84
2023/08/22 03:25:56;;;;;;;1.38;0.90;;;23.50;76.00;;;;;;5024881;28;20050;-84
2023/08/22 03:28:21;;;;;;;1.20;0.90;;;23.50;75.90;;;;;;5026536;28;20051;-84
2023/08/22 03:30:47;;;;;;;0.60;0.60;;;23.50;75.90;;;;;;5023543;28;20049;-84
2023/08/22 03:33:12;;;;;;;0.80;0.70;;;23.50;75.80;;;;;;5007819;28;20065;-84
2023/08/22 03:35:38;;;;;;;2.17;1.20;;;23.50;75.80;;;;;;5022239;28;20053;-83
2023/08/22 03:38:03;;;;;;;1.00;0.80;;;23.50;75.70;;;;;;5023142;28;20042;-84
2023/08/22 03:40:30;;;;;;;0.93;0.70;;;23.50;75.70;;;;;;5024615;28;20080;-84
2023/08/22 03:42:55;;;;;;;0.60;0.60;;;23.50;75.60;;;;;;5021573;28;20048;-84
2023/08/22 03:45:21;;;;;;;0.85;0.70;;;23.50;75.70;;;;;;5024963;28;20042;-84
2023/08/22 03:47:46;;;;;;;1.00;0.73;;;23.50;75.50;;;;;;5001465;28;20033;-84
2023/08/22 03:50:12;;;;;;;0.85;0.85;;;23.50;75.50;;;;;;5006890;28;20053;-84
2023/08/22 03:52:37;;;;;;;0.85;0.70;;;23.50;75.50;;;;;;5007932;28;20570;-84
2023/08/22 03:55:03;;;;;;;1.10;0.60;;;23.50;76.30;;;;;;5025171;28;20064;-84
2023/08/22 03:57:29;;;;;;;1.05;0.70;;;23.50;75.50;;;;;;5025732;28;20042;-84
2023/08/22 03:59:54;;;;;;;0.90;0.90;;;23.40;75.30;;;;;;5004875;28;20172;-84
2023/08/22 04:02:20;;;;;;;2.10;1.08;;;23.40;75.40;;;;;;5023735;28;20054;-84
2023/08/22 04:04:45;;;;;;;1.63;1.00;;;23.40;75.30;;;;;;5003486;28;20088;-85
2023/08/22 04:07:11;;;;;;;1.52;0.60;;;23.40;75.30;;;;;;5024856;28;20083;-85
2023/08/22 04:09:36;;;;;;;1.08;0.98;;;23.50;75.40;;;;;;5004140;28;20493;-84
2023/08/22 04:12:02;;;;;;;0.98;0.65;;;23.40;75.40;;;;;;5021964;28;20076;-84
2023/08/22 04:14:27;;;;;;;1.70;1.23;;;23.40;76.20;;;;;;5024660;28;20061;-84
2023/08/22 04:16:53;;;;;;;0.63;0.60;;;23.40;75.30;;;;;;5026830;28;20099;-84
2023/08/22 04:19:19;;;;;;;1.25;1.00;;;23.40;75.30;;;;;;5024033;28;20056;-84
2023/08/22 04:21:44;;;;;;;1.10;0.77;;;23.40;75.30;;;;;;5024042;28;20045;-84
2023/08/22 04:24:11;;;;;;;0.70;0.70;;;23.40;75.40;;;;;;5008445;28;20103;-84
2023/08/22 04:26:37;;;;;;;1.02;0.77;;;23.40;75.30;;;;;;5022327;28;20507;-84
2023/08/22 04:29:02;;;;;;;0.60;0.60;;;23.40;75.30;;;;;;5022384;28;20042;-84
2023/08/22 04:31:28;;;;;;;0.80;0.80;;;23.40;75.30;;;;;;5017863;28;20038;-84
2023/08/22 04:33:53;;;;;;;0.95;0.68;;;23.40;75.30;;;;;;5021708;28;20407;-84
2023/08/22 04:36:19;;;;;;;0.90;0.75;;;23.40;75.30;;;;;;5024364;28;20033;-84
2023/08/22 04:38:49;;;;;;;1.15;0.80;;;23.40;75.30;;;;;;5024013;28;20099;-84
2023/08/22 04:41:14;;;;;;;0.70;0.70;;;23.40;75.20;;;;;;5022129;28;20407;-83
2023/08/22 04:43:40;;;;;;;2.03;0.73;;;23.40;75.20;;;;;;5022715;28;20033;-84
2023/08/22 04:46:06;;;;;;;0.95;0.60;;;23.40;75.20;;;;;;5022011;28;20128;-84
2023/08/22 04:48:31;;;;;;;0.65;0.65;;;23.40;75.20;;;;;;5024070;28;20511;-82
2023/08/22 04:50:57;;;;;;;2.03;0.90;;;23.40;75.20;;;;;;5021256;28;20049;-86
2023/08/22 04:53:24;;;;;;;1.73;1.15;;;23.40;74.90;;;;;;5022407;28;20137;-84
2023/08/22 04:55:49;;;;;;;2.72;1.10;;;22.70;75.40;;;;;;5023181;28;20037;-86
2023/08/22 04:58:15;;;;;;;2.35;1.30;;;22.10;77.70;;;;;;5023345;28;20044;-86
2023/08/22 05:00:41;;;;;;;1.88;1.50;;;21.60;79.60;;;;;;5022178;28;20049;-87
2023/08/22 05:03:07;;;;;;;2.67;1.20;;;21.40;80.70;;;;;;5024103;28;20037;-87
2023/08/22 05:05:32;;;;;;;2.63;1.38;;;21.30;81.00;;;;;;5021362;28;20053;-88
2023/08/22 05:07:58;;;;;;;1.65;1.20;;;21.30;81.40;;;;;;5020205;28;20048;-86
2023/08/22 05:10:24;;;;;;;5.38;1.70;;;21.30;81.30;;;;;;5024194;28;20094;-87
2023/08/22 05:12:49;;;;;;;3.08;2.20;;;21.30;81.40;;;;;;5005626;28;20061;-87
2023/08/22 05:15:15;;;;;;;2.83;1.67;;;21.20;81.30;;;;;;5004644;28;20041;-85
2023/08/22 05:17:40;;;;;;;1.73;1.25;;;21.10;82.00;;;;;;5004673;28;20502;-85
2023/08/22 05:20:10;;;;;;;2.25;1.48;;;21.00;82.50;;;;;;5022395;28;20069;-85
2023/08/22 05:22:35;;;;;;;2.47;1.55;;;20.80;83.20;;;;;;5003229;28;20132;-82
2023/08/22 05:25:04;;;;;;;1.95;1.63;;;20.80;83.50;;;;;;5021414;28;20128;-85
2023/08/22 05:27:29;;;;;;;2.42;1.40;;;20.80;83.60;;;;;;5007638;28;20502;-85
2023/08/22 05:29:55;;;;;;;3.78;1.50;;;20.70;84.10;;;;;;4988568;28;20503;-82
2023/08/22 05:32:20;;;;;;;3.05;1.50;;;20.70;84.10;;;;;;5019219;28;20120;-83
2023/08/22 05:34:47;;;;;;;3.03;1.77;;;20.70;84.00;;;;;;5019960;28;20738;-82
2023/08/22 05:37:13;;;;;;;2.28;1.52;;;20.80;84.10;;;;;;5019805;28;20050;-85
2023/08/22 05:39:38;;;;;;;2.28;1.35;;;20.60;84.70;;;;;;5024389;28;20037;-86
2023/08/22 05:42:04;;;;;;;3.10;1.63;;;20.60;85.10;;;;;;5022192;28;20143;-84
2023/08/22 05:44:32;;;;;;;1.85;1.27;;;20.60;85.00;;;;;;5023266;28;20037;-78
2023/08/22 05:46:57;;;;;;;2.22;1.42;;;20.80;85.00;;;;;;5021108;28;20066;-79
2023/08/22 05:49:23;;;;;;;1.80;1.23;;;21.00;83.30;;;;;;5022959;28;20045;-76
2023/08/22 05:51:49;;;;;;;2.15;1.40;;;21.20;83.40;;;;;;5022488;28;20038;-76
2023/08/22 05:54:14;;;;;;;1.60;1.30;;;21.30;82.00;;;;;;5023995;28;20571;-75
2023/08/22 05:56:40;;;;;;;2.63;0.98;;;21.40;81.40;;;;;;5021460;28;20048;-77
2023/08/22 05:59:05;;;;;;;2.35;1.30;;;21.40;81.30;;;;;;5021426;28;20423;-77
2023/08/22 06:01:31;;;;;;;2.17;1.05;;;21.50;81.30;;;;;;5023452;28;20038;-76
2023/08/22 06:03:57;;;;;;;3.15;1.25;;;21.50;81.40;;;;;;5022470;28;20535;-77
2023/08/22 06:06:22;;;;;;;1.65;1.00;;;21.60;81.00;;;;;;5023800;28;20038;-78
2023/08/22 06:08:48;;;;;;;2.38;0.90;;;21.60;81.10;;;;;;5022796;28;20385;-78
2023/08/22 06:11:13;;;;;;;1.30;1.10;;;21.60;81.10;;;;;;5017793;28;20103;-78
2023/08/22 06:13:39;;;;;;;1.27;0.88;;;21.50;81.30;;;;;;5020967;28;20034;-78
2023/08/22 06:16:04;;;;;;;1.45;1.08;;;21.40;81.50;;;;;;5021539;28;20041;-78
2023/08/22 06:18:30;;;;;;;2.58;1.00;;;21.60;81.40;;;;;;5024224;28;20037;-78
2023/08/22 06:20:59;;;;;;;3.05;1.00;;;21.60;81.40;;;;;;5006635;28;20105;-78
2023/08/22 06:23:26;;;;;;;1.65;1.10;;;21.60;81.00;;;;;;5022088;28;20075;-78
2023/08/22 06:25:51;;;;;;;1.77;1.10;;;21.60;81.90;;;;;;5022197;28;20065;-78
2023/08/22 06:28:17;;;;;;;1.73;1.10;;;21.70;82.10;;;;;;5024999;28;20072;-78
2023/08/22 06:30:42;;;;;;;3.20;1.10;;;21.60;81.40;;;;;;5027061;28;20053;-78
2023/08/22 06:33:08;;;;;;;4.47;1.17;;;21.60;81.30;;;;;;5018996;28;20086;-78
2023/08/22 06:35:33;;;;;;;2.65;0.80;;;21.70;81.20;;;;;;5025850;28;20045;-78
2023/08/22 06:37:59;;;;;;;2.67;1.30;;;21.70;81.40;;;;;;5022901;28;20037;-78
2023/08/22 06:40:24;;;;;;;2.60;1.00;;;21.60;81.60;;;;;;5025718;28;20608;-77
2023/08/22 06:42:50;;;;;;;1.90;1.10;;;21.60;81.60;;;;;;5024576;28;20057;-77
2023/08/22 06:45:16;;;;;;;1.88;1.17;;;21.60;81.70;;;;;;5027659;28;20094;-78
2023/08/22 06:47:41;;;;;;;1.75;0.95;;;21.70;81.60;;;;;;5022964;28;20077;-78
2023/08/22 06:50:07;;;;;;;2.25;1.38;;;21.80;81.60;;;;;;5025142;28;20110;-79
2023/08/22 06:52:33;;;;;;;2.55;1.17;;;21.70;81.50;;;;;;5024003;28;20049;-79
2023/08/22 06:54:59;;;;;;;2.13;1.17;;;21.80;81.60;;;;;;5009421;28;20179;-79
2023/08/22 06:57:24;;;;;;;2.45;1.17;;;21.80;81.50;;;;;;5028437;28;20081;-79
2023/08/22 06:59:50;;;;;;;3.50;1.20;;;21.80;81.70;;;;;;5026367;28;20072;-78
2023/08/22 07:02:15;;;;;;;1.48;1.08;;;21.90;81.40;;;;;;5023068;28;20495;-77
2023/08/22 07:04:41;;;;;;;5.43;1.25;;;21.90;81.30;;;;;;5026415;28;20451;-77
2023/08/22 07:07:06;;;;;;;2.10;1.05;;;21.80;81.90;;;;;;5024998;28;20511;-78
2023/08/22 07:09:32;;;;;;;2.50;1.50;;;21.80;81.70;;;;;;5028234;28;20037;-78
2023/08/22 07:11:57;;;;;;;1.58;1.00;;;21.90;82.30;;;;;;5026330;28;20159;-78
2023/08/22 07:14:23;;;;;;;3.08;1.20;;;21.90;81.20;;;;;;5026204;28;20069;-78
2023/08/22 07:16:49;;;;;;;2.25;1.52;;;21.90;82.20;;;;;;5023610;28;20510;-78
2023/08/22 07:19:15;;;;;;;2.53;1.10;;;21.90;81.30;;;;;;5009229;28;20069;-79
2023/08/22 07:21:41;;;;;;;1.63;1.25;;;21.90;81.50;;;;;;5027230;28;20128;-78
2023/08/22 07:24:06;;;;;;;1.35;0.80;;;21.90;81.40;;;;;;5025371;28;20414;-77
2023/08/22 07:26:32;;;;;;;2.42;1.30;;;21.90;81.80;;;;;;5025839;28;20049;-77
2023/08/22 07:28:57;;;;;;;1.95;1.10;;;21.90;81.60;;;;;;5022540;28;20046;-77
2023/08/22 07:31:23;;;;;;;2.15;1.20;;;21.90;81.50;;;;;;5025324;28;20030;-76
2023/08/22 07:33:49;;;;;;;2.33;0.90;;;22.00;81.10;;;;;;5026409;28;20037;-77
2023/08/22 07:36:18;;;;;;;1.42;0.98;;;22.00;81.00;;;;;;5026386;28;20407;-76
2023/08/22 07:38:43;;;;;;;1.80;0.98;;;22.00;81.00;;;;;;5022783;28;20539;-76
2023/08/22 07:41:10;;;;;;;1.08;0.70;;;22.10;80.70;;;;;;5022306;28;20129;-77
2023/08/22 07:43:35;;;;;;;2.08;0.80;;;22.10;80.60;;;;;;5026139;28;20080;-77
2023/08/22 07:46:01;;;;;;;2.30;1.00;;;22.00;80.80;;;;;;5023760;28;20072;-77
2023/08/22 07:48:27;;;;;;;1.67;0.88;;;22.00;80.40;;;;;;5025976;28;20042;-77
2023/08/22 07:50:54;;;;;;;1.63;0.88;;;22.10;80.50;;;;;;5006099;28;20080;-77
2023/08/22 07:53:20;;;;;;;0.95;0.70;;;22.10;80.50;;;;;;5025911;28;20430;-77
2023/08/22 07:55:47;;;;;;;1.42;0.80;;;22.10;80.10;;;;;;5022571;28;20056;-77
2023/08/22 07:58:13;;;;;;;1.17;0.90;;;22.20;79.90;;;;;;5039723;28;20132;-76
2023/08/22 08:00:39;;;;;;;1.05;0.70;;;22.10;79.80;;;;;;5026274;28;20056;-76
2023/08/22 08:03:04;;;;;;;1.55;0.80;;;22.10;80.20;;;;;;5025548;28;20499;-76
2023/08/22 08:05:30;;;;;;;0.73;0.60;;;22.10;80.10;;;;;;5024071;28;20419;-76
2023/08/22 08:07:55;;;;;;;1.30;1.08;;;22.20;79.60;;;;;;5023570;28;20061;-76
2023/08/22 08:10:21;;;;;;;1.90;1.05;;;22.20;79.40;;;;;;5022848;28;20038;-76
2023/08/22 08:12:47;;;;;;;1.70;0.70;;;22.30;79.20;;;;;;5009315;28;20050;-76
2023/08/22 08:15:12;;;;;;;2.55;1.00;;;22.30;79.40;;;;;;5023463;28;20049;-78
2023/08/22 08:17:38;;;;;;;1.75;0.70;;;22.30;79.40;;;;;;5025727;28;20038;-78
2023/08/22 08:20:04;;;;;;;1.17;0.60;;;22.20;79.30;;;;;;4989703;28;20038;-77
2023/08/22 08:22:30;;;;;;;1.15;0.90;;;22.20;79.40;;;;;;5025293;28;20535;-76
2023/08/22 08:24:56;;;;;;;1.48;0.70;;;22.30;79.40;;;;;;5025135;28;20060;-78
2023/08/22 08:27:21;;;;;;;1.52;0.80;;;22.30;79.10;;;;;;5024891;28;20049;-78
2023/08/22 08:29:47;;;;;;;0.90;0.55;;;22.40;79.10;;;;;;5023666;28;20191;-78
2023/08/22 08:32:13;;;;;;;1.15;0.80;;;22.40;78.90;;;;;;5024627;28;20044;-78
2023/08/22 08:34:38;;;;;;;0.77;0.65;;;22.40;78.80;;;;;;5023845;28;20080;-78
2023/08/22 08:37:04;;;;;;;1.75;0.90;;;22.40;78.70;;;;;;5021974;28;20053;-78
2023/08/22 08:39:30;;;;;;;0.68;0.68;;;22.50;78.60;;;;;;5025364;28;20495;-78
2023/08/22 08:42:05;;;;;;;1.13;0.70;;;22.50;78.60;;;;;;5023917;28;20522;-78
2023/08/22 08:44:32;;;;;;;1.00;0.65;;;22.50;78.50;;;;;;5022879;28;20049;-78
2023/08/22 08:46:58;;;;;;;0.75;0.50;;;22.50;78.40;;;;;;5022925;28;20049;-78
2023/08/22 08:49:23;;;;;;;0.68;0.68;;;22.60;78.40;;;;;;5006109;28;20364;-78
2023/08/22 08:51:49;;;;;;;1.23;0.82;;;22.60;78.20;;;;;;5024701;28;20086;-78
2023/08/22 08:54:15;;;;;;;1.08;0.77;;;22.60;78.20;;;;;;5006618;28;20149;-78
2023/08/22 08:56:41;;;;;;;0.68;0.50;;;22.60;78.10;;;;;;5006871;28;20041;-78
2023/08/22 08:59:06;;;;;;;0.70;0.60;;;22.60;78.20;;;;;;5023538;28;20045;-78
2023/08/22 09:01:32;;;;;;;0.40;0.40;;;22.60;78.10;;;;;;5022297;28;20045;-78
2023/08/22 09:03:58;;;;;;;1.25;0.52;;;22.70;78.10;;;;;;5024124;28;20431;-78
2023/08/22 09:06:23;;;;;;;0.57;0.50;;;22.70;78.00;;;;;;5026252;28;20099;-78
2023/08/22 09:09:06;;;;;;;1.23;0.60;;;22.70;78.10;;;;;;4990532;28;20053;-77
2023/08/22 09:11:32;;;;;;;0.55;0.50;;;22.70;78.00;;;;;;5023875;28;20060;-77
2023/08/22 09:13:57;;;;;;;0.90;0.50;;;22.70;78.00;;;;;;5024418;28;20511;-77
2023/08/22 09:16:24;;;;;;;0.50;0.50;;;22.80;78.00;;;;;;5022881;28;20038;-77
2023/08/22 09:18:49;;;;;;;0.55;0.50;;;22.80;77.70;;;;;;5006523;28;20038;-77
2023/08/22 09:21:16;;;;;;;0.50;0.50;;;22.80;77.90;;;;;;5024855;28;20084;-77
2023/08/22 09:23:42;;;;;;;0.57;0.57;;;22.80;77.80;;;;;;5019703;28;20064;-77
2023/08/22 09:26:09;;;;;;;0.40;0.40;;;22.80;77.50;;;;;;5022757;28;20499;-77
2023/08/22 09:28:39;;;;;;;0.65;0.50;;;22.80;77.70;;;;;;5022373;28;20030;-77
2023/08/22 09:31:05;;;;;;;0.50;0.43;;;22.80;77.50;;;;;;5022499;28;20137;-77
2023/08/22 09:33:46;;;;;;;0.73;0.40;;;22.90;77.20;;;;;;5023809;28;20506;-77
2023/08/22 09:36:11;;;;;;;1.30;0.50;;;22.90;77.30;;;;;;5025474;28;20041;-77
2023/08/22 09:38:58;;;;;;;0.55;0.40;;;22.90;77.40;;;;;;5023444;28;20052;-77
2023/08/22 09:41:27;;;;;;;0.50;0.50;;;22.90;77.10;;;;;;5022906;28;20051;-77
2023/08/22 09:43:54;;;;;;;1.17;0.60;;;22.90;76.90;;;;;;5022531;28;20038;-77
2023/08/22 09:46:21;;;;;;;0.88;0.50;;;22.90;77.00;;;;;;4997143;28;20048;-77
2023/08/22 09:48:48;;;;;;;1.65;0.38;;;23.00;76.70;;;;;;5024002;28;20084;-77
2023/08/22 09:51:15;;;;;;;0.55;0.55;;;23.00;76.60;;;;;;5024231;28;20056;-77
2023/08/22 09:53:40;;;;;;;0.43;0.30;;;23.00;76.50;;;;;;5008433;28;20584;-77
2023/08/22 09:56:06;;;;;;;0.50;0.50;;;23.00;76.40;;;;;;5021631;28;20041;-77
2023/08/22 09:58:32;;;;;;;0.55;0.50;;;23.00;76.40;;;;;;4988578;28;20583;-77
2023/08/22 10:00:58;;;;;;;0.40;0.32;;;23.00;76.40;;;;;;5009614;28;20151;-77
2023/08/22 10:03:24;;;;;;;0.40;0.40;;;23.00;76.40;;;;;;5027260;28;20582;-77
2023/08/22 10:05:50;;;;;;;0.77;0.45;;;23.10;76.30;;;;;;5025951;28;20033;-77
2023/08/22 10:08:15;;;;;;;0.52;0.30;;;23.10;76.30;;;;;;5025052;28;20034;-77
2023/08/22 10:10:42;;;;;;;0.60;0.47;;;23.10;76.30;;;;;;5028200;28;20051;-77
2023/08/22 10:13:07;;;;;;;0.40;0.38;;;23.10;76.30;;;;;;5026960;28;20404;-77
2023/08/22 10:15:33;;;;;;;0.30;0.30;;;23.10;76.10;;;;;;5028253;28;20040;-77
2023/08/22 10:17:59;;;;;;;1.23;0.60;;;23.20;76.20;;;;;;5026261;28;20455;-77
2023/08/22 10:20:24;;;;;;;0.30;0.30;;;23.20;76.10;;;;;;5026233;28;20475;-77
2023/08/22 10:22:52;;;;;;;0.45;0.45;;;23.10;76.00;;;;;;5025559;28;20140;-77
2023/08/22 10:25:17;;;;;;;0.50;0.43;;;23.10;76.90;;;;;;5026030;28;20046;-77
2023/08/22 10:27:47;;;;;;;0.35;0.30;;;23.20;76.10;;;;;;5008961;28;20041;-77
2023/08/22 10:30:12;;;;;;;0.40;0.40;;;23.10;76.00;;;;;;5027249;28;20128;-77
2023/08/22 10:32:38;;;;;;;0.40;0.38;;;23.20;76.10;;;;;;5025871;28;20175;-77
2023/08/22 10:35:14;;;;;;;0.50;0.50;;;23.20;75.90;;;;;;5023557;28;20041;-77
2023/08/22 10:37:52;;;;;;;0.43;0.20;;;23.20;76.00;;;;;;5025530;28;20044;-77
2023/08/22 10:40:27;;;;;;;0.60;0.40;;;23.20;75.80;;;;;;5025936;28;20054;-77
2023/08/22 10:43:12;;;;;;;0.45;0.45;;;23.30;75.80;;;;;;5009753;28;20048;-77
2023/08/22 10:45:42;;;;;;;0.30;0.30;;;23.30;75.80;;;;;;5026652;28;20052;-77
2023/08/22 10:48:11;;;;;;;0.30;0.20;;;23.30;75.80;;;;;;5023455;28;20049;-77
2023/08/22 10:50:40;;;;;;;0.50;0.45;;;23.30;75.90;;;;;;5026219;28;20061;-77
2023/08/22 10:53:23;;;;;;;0.70;0.40;;;23.30;75.90;;;;;;5026392;28;20045;-77
2023/08/22 10:55:49;;;;;;;0.30;0.30;;;23.30;75.80;;;;;;5028396;28;20041;-77
2023/08/22 10:58:40;;;;;;;0.52;0.52;;;23.30;75.80;;;;;;5024681;28;20411;-77
2023/08/22 11:01:15;;;;;;;0.70;0.30;;;23.30;75.80;;;;;;5026171;28;20562;-77
2023/08/22 11:03:41;;;;;;;0.73;0.50;;;23.30;75.70;;;;;;5009155;28;20049;-77
2023/08/22 11:06:13;;;;;;;0.38;0.38;;;23.30;75.60;;;;;;5025424;28;20053;-77
2023/08/22 11:08:40;;;;;;;0.63;0.40;;;23.30;75.60;;;;;;5026211;28;20468;-77
2023/08/22 11:11:06;;;;;;;0.20;0.20;;;23.30;75.60;;;;;;5024279;28;20127;-77
2023/08/22 11:13:38;;;;;;;0.20;0.20;;;23.30;75.60;;;;;;4991742;28;20072;-77
2023/08/22 11:16:09;;;;;;;0.50;0.40;;;23.40;75.60;;;;;;5023505;28;20049;-77
2023/08/22 11:18:34;;;;;;;0.17;0.17;;;23.40;75.60;;;;;;5025634;28;20041;-77
2023/08/22 11:21:00;;;;;;;0.65;0.28;;;23.40;75.60;;;;;;4990502;28;20050;-77
2023/08/22 11:23:25;;;;;;;0.22;0.20;;;23.40;75.50;;;;;;5024352;28;20049;-77
2023/08/22 11:25:51;;;;;;;0.30;0.30;;;23.40;75.60;;;;;;5025687;28;22276;-77
2023/08/22 11:28:17;;;;;;;0.20;0.20;;;23.40;75.50;;;;;;5025500;28;20045;-77
2023/08/22 11:30:42;;;;;;;0.20;0.20;;;23.40;75.50;;;;;;5027714;28;20068;-77
2023/08/22 11:33:08;;;;;;;0.20;0.20;;;23.40;75.50;;;;;;5021894;28;20523;-77
2023/08/22 11:35:33;;;;;;;0.10;0.10;;;23.40;75.60;;;;;;5026380;28;20076;-78
2023/08/22 11:37:59;;;;;;;0.43;0.40;;;23.30;75.50;;;;;;5024079;28;21220;-77
2023/08/22 11:40:25;;;;;;;0.30;0.30;;;23.40;75.60;;;;;;5021838;28;20038;-77
2023/08/22 11:42:51;;;;;;;0.40;0.30;;;23.40;75.60;;;;;;5021661;28;20476;-83
2023/08/22 11:45:24;;;;;;;0.40;0.38;;;23.40;75.60;;;;;;5008951;28;20132;-83
2023/08/22 11:47:53;;;;;;;1.45;0.60;;;23.40;75.50;;;;;;5024518;28;20035;-83
2023/08/22 11:50:23;;;;;;;0.20;0.20;;;23.40;75.60;;;;;;5024774;28;20526;-83
2023/08/22 11:52:52;;;;;;;0.30;0.30;;;23.40;75.50;;;;;;5023283;28;20041;-83
2023/08/22 11:55:55;;;;;;;0.43;0.43;;;23.40;75.60;;;;;;5023500;28;20056;-83
2023/08/22 11:58:21;;;;;;;0.20;0.20;;;23.40;75.50;;;;;;5022558;28;20412;-83
2023/08/22 12:00:46;;;;;;;0.30;0.30;;;23.40;75.40;;;;;;5009907;28;20095;-83
2023/08/22 12:03:12;;;;;;;0.30;0.30;;;23.50;76.30;;;;;;5024679;28;20041;-82
2023/08/22 12:05:39;;;;;;;0.40;0.40;;;23.50;75.60;;;;;;5024208;28;20426;-81
2023/08/22 12:08:10;;;;;;;14.55;9.65;;;23.50;74.90;;;;;;5026062;28;20037;-80
2023/08/22 12:10:40;;;;;;;16.58;13.90;;;23.50;75.10;;;;;;5025267;28;20091;-80
2023/08/22 12:13:06;;;;;;;11.00;9.93;;;23.60;74.50;;;;;;5023192;28;20045;-79
2023/08/22 12:15:32;;;;;;;8.25;7.50;;;23.60;74.10;;;;;;5022534;28;20049;-82
2023/08/22 12:17:58;;;;;;;5.15;4.75;;;23.70;74.60;;;;;;5019637;28;20123;-81
2023/08/22 12:20:24;;;;;;;3.50;3.30;;;23.70;74.30;;;;;;5021943;28;20136;-87
2023/08/22 12:22:49;;;;;;;2.78;2.58;;;23.70;74.20;;;;;;5022474;28;20060;-81
2023/08/22 12:25:15;;;;;;;2.30;2.20;;;23.80;73.50;;;;;;5021316;28;20038;-83
2023/08/22 12:27:40;;;;;;;2.35;2.20;;;23.80;73.60;;;;;;5023027;28;20499;-81
2023/08/22 12:30:06;;;;;;;2.00;1.90;;;23.80;73.60;;;;;;5023862;28;20042;-85
2023/08/22 12:32:33;;;;;;;2.22;1.90;;;23.80;73.50;;;;;;5024549;28;20045;-85
2023/08/22 12:34:59;;;;;;;3.10;2.20;;;23.90;73.40;;;;;;5024067;28;20601;-82
2023/08/22 12:37:25;;;;;;;1.60;1.50;;;23.80;73.60;;;;;;5023031;28;20057;-83
2023/08/22 12:39:50;;;;;;;1.60;1.38;;;23.90;73.00;;;;;;5022564;28;20049;-84
2023/08/22 12:42:16;;;;;;;1.40;1.30;;;23.90;72.90;;;;;;5021920;28;20041;-81